Terminal Aerodrome Forecast
Issued by NWS Cleveland, OH

Home | Current Version | Previous Version | Graphics & Text | Print | Product List | Glossary On
Versions: 1 2 3 4 5 6 7 8 9 10 11 12 13 14 15 16 17 18
601
FTUS41 KCLE 030135 AAA
TAFTOL
TAF AMD
KTOL 030135Z 0302/0324 10012KT P6SM SCT025 OVC040
     FM030400 15018G30KT 5SM -SHRA BKN025 OVC035
      TEMPO 0304/0308 3SM -TSRA SCT008 OVC015CB
     FM030800 17020G32KT 5SM -RA SCT025 OVC035
     FM031500 21015G25KT P6SM SCT025 OVC035=

USA.gov is the U.S. government's official web portal to all federal, state and local government web resources and services.